Time;durP1;ratioP1;P1;durP2;ratioP2;P2;SDS_P1;SDS_P2;PMS_P1;PMS_P2;Temp;Humidity;BMP_temperature;BMP_pressure;BME280_temperature;BME280_humidity;BME280_pressure;Samples;Min_cycle;Max_cycle;Signal;HPM_P1;HPM_P2
2022/09/08 00:02:56;;;;;;;5.30;1.70;;;20.30;99.90;;;;;;6273144;28;20048;-78
2022/09/08 00:06:02;;;;;;;4.05;1.23;;;20.30;99.90;;;;;;6271932;28;20159;-78
2022/09/08 00:09:06;;;;;;;3.58;1.80;;;20.30;99.90;;;;;;6272378;28;20103;-78
2022/09/08 00:12:11;;;;;;;2.58;1.60;;;20.30;99.90;;;;;;6272116;28;20417;-78
2022/09/08 00:15:13;;;;;;;8.27;2.00;;;20.30;99.90;;;;;;6272262;28;20060;-78
2022/09/08 00:18:15;;;;;;;7.70;1.50;;;20.20;99.90;;;;;;6271182;28;20055;-78
2022/09/08 00:21:17;;;;;;;7.13;2.08;;;20.00;99.90;;;;;;6266416;28;20056;-78
2022/09/08 00:24:20;;;;;;;6.13;2.00;;;19.90;99.90;;;;;;6271208;28;20053;-78
2022/09/08 00:27:22;;;;;;;6.72;2.17;;;19.70;99.90;;;;;;6271320;28;20056;-78
2022/09/08 00:30:24;;;;;;;4.22;1.95;;;19.70;99.90;;;;;;6272558;28;20056;-78
2022/09/08 00:33:26;;;;;;;4.72;2.13;;;19.80;99.90;;;;;;6273902;28;20053;-78
2022/09/08 00:36:29;;;;;;;4.53;1.90;;;19.80;99.90;;;;;;6272052;28;20037;-78
2022/09/08 00:39:32;;;;;;;5.80;2.20;;;19.80;99.90;;;;;;6272383;28;20683;-78
2022/09/08 00:42:34;;;;;;;8.13;2.25;;;19.70;99.90;;;;;;6273108;28;20132;-79
2022/09/08 00:45:44;;;;;;;4.03;2.00;;;19.70;99.90;;;;;;6273535;28;20048;-78
2022/09/08 00:48:49;;;;;;;5.90;2.63;;;19.80;99.90;;;;;;6272750;28;20084;-78
2022/09/08 00:51:55;;;;;;;4.70;2.28;;;19.80;99.90;;;;;;6273253;28;20669;-79
2022/09/08 00:54:59;;;;;;;6.97;2.40;;;19.70;99.90;;;;;;6258348;28;20162;-78
2022/09/08 00:58:00;;;;;;;5.25;2.17;;;19.90;99.90;;;;;;6251006;28;20475;-78
2022/09/08 01:01:02;;;;;;;14.57;3.20;;;19.80;99.90;;;;;;6248619;28;20065;-78
2022/09/08 01:04:05;;;;;;;7.35;1.95;;;19.80;99.90;;;;;;6247799;28;20050;-79
2022/09/08 01:14:05;;;;;;;6.80;1.83;;;19.70;99.90;;;;;;6247151;28;20411;-78
2022/09/08 01:17:14;;;;;;;6.18;2.13;;;19.70;99.90;;;;;;6247734;28;20049;-78
2022/09/08 01:20:18;;;;;;;7.82;2.33;;;19.70;99.90;;;;;;6246133;28;20438;-78
2022/09/08 01:23:54;;;;;;;2.55;1.70;;;19.60;99.90;;;;;;6246875;28;20045;-78
2022/09/08 01:27:13;;;;;;;3.45;2.17;;;19.70;99.90;;;;;;6246392;28;20045;-78
2022/09/08 01:30:15;;;;;;;9.63;2.22;;;19.60;99.90;;;;;;6246723;28;20051;-78
2022/09/08 01:33:17;;;;;;;5.43;1.92;;;19.70;99.90;;;;;;6247077;28;20046;-78
2022/09/08 01:36:19;;;;;;;4.18;2.08;;;19.70;99.90;;;;;;6246707;28;20056;-78
2022/09/08 01:39:21;;;;;;;9.43;2.10;;;19.70;99.90;;;;;;6246647;28;20042;-78
2022/09/08 01:42:25;;;;;;;10.75;2.08;;;19.80;99.90;;;;;;6246529;28;20045;-78
2022/09/08 01:45:28;;;;;;;3.28;1.83;;;19.80;99.90;;;;;;6246420;28;20048;-78
2022/09/08 01:48:29;;;;;;;4.35;2.00;;;19.80;99.90;;;;;;6250575;28;20146;-78
2022/09/08 01:51:31;;;;;;;3.40;2.13;;;19.90;99.90;;;;;;6275460;28;20068;-78
2022/09/08 01:54:34;;;;;;;5.78;2.50;;;19.80;99.90;;;;;;6275334;28;20195;-77
2022/09/08 01:57:37;;;;;;;3.55;2.08;;;19.70;99.90;;;;;;6274341;28;20136;-78
2022/09/08 02:00:42;;;;;;;5.53;1.92;;;19.70;99.90;;;;;;6274201;28;20079;-77
2022/09/08 02:03:44;;;;;;;19.60;2.65;;;19.60;99.90;;;;;;6275266;28;20047;-78
2022/09/08 02:06:46;;;;;;;3.40;2.22;;;19.60;99.90;;;;;;6274371;28;20637;-77
2022/09/08 02:09:49;;;;;;;5.95;2.70;;;19.60;99.90;;;;;;6274999;28;20049;-78
2022/09/08 02:12:52;;;;;;;8.32;2.40;;;19.60;99.90;;;;;;6276304;28;20882;-77
2022/09/08 02:15:59;;;;;;;4.55;2.38;;;19.70;99.90;;;;;;6274969;28;20055;-78
2022/09/08 02:19:02;;;;;;;7.57;2.60;;;19.70;99.90;;;;;;6274462;28;20510;-77
2022/09/08 02:22:04;;;;;;;4.05;2.20;;;19.80;99.90;;;;;;6274109;28;20107;-78
2022/09/08 02:25:07;;;;;;;4.28;2.80;;;19.70;99.90;;;;;;6275084;28;20522;-78
2022/09/08 02:28:11;;;;;;;3.88;2.65;;;19.70;99.90;;;;;;6274545;28;20055;-77
2022/09/08 02:31:13;;;;;;;11.63;3.53;;;19.70;99.90;;;;;;6275256;28;20614;-78
2022/09/08 02:34:16;;;;;;;3.63;2.33;;;19.70;99.90;;;;;;6275424;28;20063;-77
2022/09/08 02:37:18;;;;;;;5.50;2.63;;;19.70;99.90;;;;;;6276318;28;20063;-78
2022/09/08 02:40:21;;;;;;;8.48;3.45;;;19.70;99.90;;;;;;6276575;28;20413;-77
2022/09/08 02:43:25;;;;;;;6.20;2.92;;;19.70;99.90;;;;;;6276334;28;20048;-78
2022/09/08 02:46:27;;;;;;;5.45;2.60;;;19.70;99.90;;;;;;6274561;28;20422;-78
2022/09/08 02:49:32;;;;;;;7.63;3.00;;;19.60;99.90;;;;;;6275259;28;20053;-78
2022/09/08 02:52:34;;;;;;;7.43;3.55;;;19.50;99.90;;;;;;6277538;28;20049;-78
2022/09/08 02:55:38;;;;;;;4.47;2.55;;;19.50;99.90;;;;;;6283335;22;20160;-82
2022/09/08 02:58:41;;;;;;;4.13;2.63;;;19.50;99.90;;;;;;6238739;28;20060;-83
2022/09/08 03:01:43;;;;;;;10.25;3.53;;;19.50;99.90;;;;;;6219309;28;20410;-83
2022/09/08 03:04:44;;;;;;;7.07;2.88;;;19.30;99.90;;;;;;6225424;28;20450;-83
2022/09/08 03:07:46;;;;;;;10.95;3.33;;;19.40;99.90;;;;;;6225172;28;20419;-83
2022/09/08 03:10:49;;;;;;;5.00;3.22;;;19.40;99.90;;;;;;6225760;28;20507;-82
2022/09/08 03:13:52;;;;;;;8.13;3.78;;;19.40;99.90;;;;;;6225895;28;20053;-82
2022/09/08 03:16:53;;;;;;;9.77;4.30;;;19.30;99.90;;;;;;6226036;28;20046;-82
2022/09/08 03:19:55;;;;;;;7.90;3.53;;;19.40;99.90;;;;;;6224933;28;20050;-83
2022/09/08 03:22:57;;;;;;;10.25;3.80;;;19.30;99.90;;;;;;6225162;28;20049;-83
2022/09/08 03:26:02;;;;;;;8.70;4.03;;;19.10;99.90;;;;;;6224861;28;20042;-83
2022/09/08 03:29:06;;;;;;;8.85;4.35;;;19.10;99.90;;;;;;6225155;28;20060;-84
2022/09/08 03:32:07;;;;;;;10.13;3.83;;;19.10;99.90;;;;;;6225108;28;20046;-83
2022/09/08 03:35:11;;;;;;;7.47;4.32;;;19.00;99.90;;;;;;6225327;28;20049;-83
2022/09/08 03:38:12;;;;;;;9.68;4.38;;;19.10;99.90;;;;;;6225046;28;20050;-83
2022/09/08 03:41:16;;;;;;;7.03;3.30;;;19.00;99.90;;;;;;6225833;28;20136;-84
2022/09/08 03:44:19;;;;;;;7.07;3.13;;;19.10;99.90;;;;;;6224837;28;20053;-83
2022/09/08 03:47:21;;;;;;;6.15;2.78;;;19.00;99.90;;;;;;6224912;28;20053;-81
2022/09/08 03:50:24;;;;;;;4.30;2.63;;;19.00;99.90;;;;;;6176559;28;20425;-84
2022/09/08 03:53:26;;;;;;;5.72;4.05;;;18.90;99.90;;;;;;6177442;28;20065;-82
2022/09/08 03:56:28;;;;;;;8.68;2.70;;;18.90;99.90;;;;;;6175715;28;20047;-84
2022/09/08 03:59:31;;;;;;;7.18;2.28;;;18.90;99.90;;;;;;6192998;28;20062;-82
2022/09/08 04:02:32;;;;;;;4.07;1.65;;;18.90;99.90;;;;;;6178468;28;20051;-84
2022/09/08 04:05:34;;;;;;;2.80;1.48;;;18.80;99.90;;;;;;6176811;28;20047;-83
2022/09/08 04:08:36;;;;;;;2.75;1.10;;;18.70;99.90;;;;;;6200634;28;20050;-82
2022/09/08 04:11:38;;;;;;;3.45;1.05;;;18.60;99.90;;;;;;6200328;28;20109;-84
2022/09/08 04:14:41;;;;;;;1.30;1.13;;;18.50;99.90;;;;;;6200163;28;20072;-84
2022/09/08 04:17:43;;;;;;;2.28;1.42;;;18.50;99.90;;;;;;6199772;28;20066;-83
2022/09/08 04:20:44;;;;;;;2.28;1.38;;;18.50;99.90;;;;;;6200187;28;20119;-80
2022/09/08 04:23:46;;;;;;;3.72;1.33;;;18.50;99.90;;;;;;6199697;28;20050;-81
2022/09/08 04:26:48;;;;;;;5.82;1.15;;;18.40;99.90;;;;;;6199280;28;20042;-81
2022/09/08 04:29:51;;;;;;;5.10;1.00;;;18.30;99.90;;;;;;6199363;28;20192;-82
2022/09/08 04:32:53;;;;;;;7.68;2.65;;;18.30;99.90;;;;;;6199802;28;20057;-81
2022/09/08 04:35:55;;;;;;;2.97;1.38;;;18.20;99.90;;;;;;6199206;28;20392;-81
2022/09/08 04:38:57;;;;;;;1.80;1.20;;;18.20;99.90;;;;;;6200154;28;20499;-81
2022/09/08 04:41:59;;;;;;;5.55;1.20;;;18.20;99.90;;;;;;6199007;28;20042;-80
2022/09/08 04:45:02;;;;;;;4.38;1.38;;;18.20;99.90;;;;;;6199291;28;20404;-81
2022/09/08 04:48:04;;;;;;;3.40;1.42;;;18.10;99.90;;;;;;6198402;28;20046;-80
2022/09/08 04:51:06;;;;;;;3.38;1.00;;;18.00;99.90;;;;;;6198818;28;20050;-80
2022/09/08 04:54:09;;;;;;;3.38;1.20;;;17.90;99.90;;;;;;6198587;28;20424;-80
2022/09/08 04:57:11;;;;;;;3.78;1.15;;;17.80;99.90;;;;;;6199303;28;20078;-80
2022/09/08 05:00:18;;;;;;;1.98;0.80;;;17.70;99.90;;;;;;6199396;28;20073;-82
2022/09/08 05:03:19;;;;;;;3.10;1.95;;;17.70;99.90;;;;;;6203813;28;20078;-82
2022/09/08 05:06:22;;;;;;;1.17;0.65;;;17.50;99.90;;;;;;6204284;28;20053;-83
2022/09/08 05:09:24;;;;;;;7.95;1.00;;;17.50;99.90;;;;;;6203907;28;20053;-82
2022/09/08 05:12:27;;;;;;;1.25;0.80;;;17.40;99.90;;;;;;6203308;28;20046;-83
2022/09/08 05:15:30;;;;;;;1.10;0.50;;;17.40;99.90;;;;;;6202564;28;20050;-82
2022/09/08 05:18:32;;;;;;;0.80;0.57;;;17.30;99.90;;;;;;6202792;28;20051;-82
2022/09/08 05:21:36;;;;;;;2.55;0.70;;;17.40;99.90;;;;;;6203671;28;20062;-81
2022/09/08 05:24:38;;;;;;;2.50;0.85;;;17.40;99.90;;;;;;6206015;28;20054;-82
2022/09/08 05:27:40;;;;;;;1.10;0.50;;;17.50;99.90;;;;;;6207681;28;20535;-81
2022/09/08 05:30:43;;;;;;;1.45;0.82;;;17.40;99.90;;;;;;6207610;28;20046;-81
2022/09/08 05:33:44;;;;;;;4.30;1.00;;;17.30;99.90;;;;;;6206790;28;20062;-81
2022/09/08 05:36:46;;;;;;;4.25;0.77;;;17.40;99.90;;;;;;6207792;28;20053;-82
2022/09/08 05:39:48;;;;;;;3.50;0.80;;;17.30;99.90;;;;;;6207426;28;20047;-81
2022/09/08 05:42:50;;;;;;;4.80;0.95;;;17.40;99.90;;;;;;6206352;28;20057;-82
2022/09/08 05:45:53;;;;;;;2.35;0.73;;;17.50;99.90;;;;;;6207306;28;20057;-82
2022/09/08 05:48:57;;;;;;;0.82;0.52;;;17.60;99.90;;;;;;6206569;28;20050;-82
2022/09/08 05:51:59;;;;;;;1.38;0.95;;;17.60;99.90;;;;;;6205662;28;20549;-80
2022/09/08 05:55:01;;;;;;;1.67;0.82;;;17.70;99.90;;;;;;6205579;28;20054;-82
2022/09/08 05:58:03;;;;;;;2.53;0.80;;;17.70;99.90;;;;;;6205326;28;20058;-81
2022/09/08 06:01:09;;;;;;;2.30;0.90;;;17.80;99.90;;;;;;6205723;28;20065;-82
2022/09/08 06:04:11;;;;;;;2.45;1.08;;;17.80;99.90;;;;;;6218515;28;20045;-81
2022/09/08 06:07:13;;;;;;;3.88;0.63;;;17.90;99.90;;;;;;6230411;28;20049;-81
2022/09/08 06:10:15;;;;;;;6.70;0.82;;;17.90;99.90;;;;;;6228782;28;20153;-82
2022/09/08 06:13:17;;;;;;;1.65;0.45;;;18.00;99.90;;;;;;6230220;28;20046;-81
2022/09/08 06:16:21;;;;;;;1.60;0.90;;;18.00;99.90;;;;;;6229427;28;20042;-80
2022/09/08 06:19:22;;;;;;;1.98;0.90;;;18.00;99.90;;;;;;6229380;28;20415;-81
2022/09/08 06:22:25;;;;;;;1.38;0.70;;;18.10;99.90;;;;;;6229917;28;20056;-82
2022/09/08 06:25:27;;;;;;;5.18;1.38;;;18.10;99.90;;;;;;6229265;28;20484;-83
2022/09/08 06:28:36;;;;;;;1.48;0.88;;;18.20;99.90;;;;;;6228634;28;20053;-82
2022/09/08 06:31:43;;;;;;;3.58;1.20;;;18.20;99.90;;;;;;6228301;28;20049;-79
2022/09/08 06:34:50;;;;;;;3.22;0.98;;;18.30;99.90;;;;;;6228019;28;20057;-82
2022/09/08 06:37:55;;;;;;;2.47;0.90;;;18.40;99.90;;;;;;6229286;28;20145;-82
2022/09/08 06:41:05;;;;;;;3.90;0.80;;;18.40;99.90;;;;;;6229128;28;20503;-82
2022/09/08 06:44:16;;;;;;;4.95;0.65;;;18.40;99.90;;;;;;6229078;28;20060;-81
2022/09/08 06:47:24;;;;;;;1.33;0.60;;;18.40;99.90;;;;;;6228055;28;20185;-82
2022/09/08 06:50:27;;;;;;;1.67;1.15;;;18.40;99.90;;;;;;6228211;28;20046;-81
2022/09/08 06:53:34;;;;;;;2.03;0.68;;;18.50;99.90;;;;;;6235417;28;20060;-80
2022/09/08 06:56:49;;;;;;;2.05;0.60;;;18.50;99.90;;;;;;6252535;28;20042;-81
2022/09/08 07:00:02;;;;;;;0.93;0.60;;;18.60;99.90;;;;;;6252110;28;20063;-82
2022/09/08 07:03:16;;;;;;;3.05;0.65;;;18.70;99.90;;;;;;6208971;28;20057;-81
2022/09/08 07:06:20;;;;;;;0.70;0.50;;;19.00;99.90;;;;;;6221234;28;20447;-79
2022/09/08 07:09:30;;;;;;;1.58;0.70;;;19.20;99.90;;;;;;6252617;28;20065;-83
2022/09/08 07:12:46;;;;;;;1.60;0.60;;;19.30;99.90;;;;;;6245130;28;20042;-82
2022/09/08 07:15:56;;;;;;;1.00;0.43;;;19.40;99.90;;;;;;6226347;28;20054;-82
2022/09/08 07:19:05;;;;;;;1.95;0.70;;;19.50;99.90;;;;;;6226455;28;20057;-80
2022/09/08 07:22:16;;;;;;;2.38;0.65;;;19.50;99.90;;;;;;6227943;28;20129;-83
2022/09/08 07:25:23;;;;;;;2.60;0.43;;;19.40;99.90;;;;;;6227362;28;20083;-82
2022/09/08 07:28:27;;;;;;;1.98;0.70;;;19.40;99.90;;;;;;6226818;28;20479;-81
2022/09/08 07:31:29;;;;;;;2.08;0.50;;;19.30;99.90;;;;;;6226553;28;20045;-81
2022/09/08 07:34:49;;;;;;;1.10;0.40;;;19.20;99.90;;;;;;6223695;28;20052;-82
2022/09/08 07:37:54;;;;;;;1.83;0.43;;;19.20;99.90;;;;;;6241349;28;20050;-79
2022/09/08 07:41:07;;;;;;;2.28;0.40;;;19.20;99.90;;;;;;6252328;28;20406;-81
2022/09/08 07:44:14;;;;;;;1.00;0.28;;;19.10;99.90;;;;;;6248774;28;20049;-81
2022/09/08 07:47:39;;;;;;;3.75;0.40;;;19.10;99.90;;;;;;6249389;28;20071;-79
2022/09/08 07:50:57;;;;;;;1.77;0.50;;;19.10;99.90;;;;;;6249805;28;20125;-81
2022/09/08 07:54:12;;;;;;;0.90;0.53;;;19.10;99.90;;;;;;6249830;28;20041;-81
2022/09/08 07:57:19;;;;;;;3.55;0.88;;;19.10;99.90;;;;;;6249318;28;20048;-80
2022/09/08 08:00:25;;;;;;;2.03;0.80;;;19.30;99.90;;;;;;6241892;28;20050;-83
2022/09/08 08:03:44;;;;;;;1.15;0.52;;;19.40;99.90;;;;;;6221543;28;20054;-79
2022/09/08 08:06:48;;;;;;;;;;;19.50;99.90;;;;;;6225551;28;20045;-80
2022/09/08 08:10:00;;;;;;;1.38;0.30;;;19.40;99.90;;;;;;6223980;28;19921;-80
2022/09/08 08:13:11;;;;;;;0.82;0.60;;;19.40;99.90;;;;;;6223377;28;20093;-80
2022/09/08 08:16:18;;;;;;;3.38;0.75;;;19.50;99.90;;;;;;6223476;28;20050;-81
2022/09/08 08:19:38;;;;;;;4.63;0.50;;;19.70;99.90;;;;;;6225453;28;20124;-81
2022/09/08 08:23:10;;;;;;;0.90;0.30;;;19.90;99.90;;;;;;6225181;28;20292;-81
2022/09/08 08:26:20;;;;;;;4.57;0.80;;;20.20;99.90;;;;;;6218493;28;20042;-81
2022/09/08 08:29:42;;;;;;;0.57;0.30;;;20.50;99.90;;;;;;6224824;28;20061;-80
2022/09/08 08:32:49;;;;;;;2.58;0.50;;;20.80;99.90;;;;;;6224812;28;20050;-80
2022/09/08 08:35:56;;;;;;;1.58;0.25;;;21.00;99.90;;;;;;6232344;28;20546;-80
2022/09/08 08:39:14;;;;;;;1.90;0.30;;;21.10;99.90;;;;;;6248414;28;20046;-81
2022/09/08 08:42:29;;;;;;;0.20;0.10;;;20.90;99.90;;;;;;6234471;28;20049;-80
2022/09/08 08:45:40;;;;;;;4.47;0.75;;;21.20;99.90;;;;;;6225109;28;20085;-82
2022/09/08 08:49:03;;;;;;;1.85;0.20;;;21.50;99.90;;;;;;6224907;28;20049;-80
2022/09/08 08:56:17;;;;;;;1.90;0.30;;;21.80;99.10;;;;;;6243578;22;20422;-77
2022/09/08 08:59:48;;;;;;;1.45;0.47;;;22.10;98.50;;;;;;6285176;28;20048;-76
2022/09/08 09:03:15;;;;;;;0.85;0.22;;;22.60;97.50;;;;;;6286488;28;20093;-77
2022/09/08 09:06:43;;;;;;;1.58;0.20;;;23.50;96.10;;;;;;6274607;28;20051;-78
2022/09/08 09:10:03;;;;;;;0.45;0.30;;;25.30;92.40;;;;;;6270948;28;20049;-78
2022/09/08 09:13:22;;;;;;;0.40;0.10;;;26.40;88.30;;;;;;6271381;28;20052;-78
2022/09/08 09:16:38;;;;;;;;;;;27.70;84.40;;;;;;6248043;28;20057;-77
2022/09/08 09:20:19;;;;;;;1.75;0.20;;;27.60;76.00;;;;;;6245908;28;19930;-78
2022/09/08 09:23:40;;;;;;;2.13;0.10;;;26.50;76.00;;;;;;6246200;28;20056;-78
2022/09/08 09:26:48;;;;;;;4.05;0.95;;;25.20;78.20;;;;;;6245095;28;20052;-78
2022/09/08 09:30:05;;;;;;;2.35;0.30;;;24.60;81.60;;;;;;6246183;28;20060;-77
2022/09/08 09:33:45;;;;;;;1.38;0.30;;;24.20;84.80;;;;;;6246833;28;20049;-78
2022/09/08 09:37:26;;;;;;;1.90;0.10;;;23.90;85.00;;;;;;6197135;28;20050;-78
2022/09/08 09:40:55;;;;;;;3.40;0.30;;;23.80;87.40;;;;;;6170156;28;20545;-79
2022/09/08 09:44:16;;;;;;;0.03;0.00;;;24.10;87.70;;;;;;6176392;28;20045;-79
2022/09/08 09:47:31;;;;;;;0.47;0.10;;;25.10;84.50;;;;;;6270508;28;20044;-78
2022/09/08 09:50:48;;;;;;;0.85;0.20;;;25.50;80.10;;;;;;6271383;28;20521;-78
2022/09/08 09:54:05;;;;;;;3.42;0.38;;;25.60;79.40;;;;;;6273917;28;20151;-78
2022/09/08 09:57:50;;;;;;;10.30;0.73;;;25.80;80.00;;;;;;6270857;28;20087;-78
2022/09/08 10:01:19;;;;;;;8.27;0.80;;;25.90;78.20;;;;;;6295720;28;20048;-79
2022/09/08 10:04:43;;;;;;;;;;;26.00;77.60;;;;;;6289399;28;20053;-78
2022/09/08 10:08:07;;;;;;;4.07;1.05;;;26.20;78.70;;;;;;6254774;28;20405;-78
2022/09/08 10:11:38;;;;;;;0.60;0.20;;;26.00;74.00;;;;;;6249342;28;20053;-79
2022/09/08 10:15:02;;;;;;;2.90;0.32;;;25.70;75.90;;;;;;6250337;28;20056;-78
2022/09/08 10:18:26;;;;;;;3.95;0.90;;;25.60;75.00;;;;;;6250128;28;20042;-77
2022/09/08 10:22:05;;;;;;;1.10;0.35;;;25.20;72.80;;;;;;6250563;28;20049;-78
2022/09/08 10:25:18;;;;;;;;;;;25.00;73.90;;;;;;6252039;28;20045;-78
2022/09/08 10:28:42;;;;;;;2.53;0.20;;;25.10;74.40;;;;;;6251389;28;19921;-77
2022/09/08 10:32:15;;;;;;;0.82;0.20;;;25.00;71.50;;;;;;6250776;28;20057;-79
2022/09/08 10:35:37;;;;;;;1.17;0.10;;;24.80;72.70;;;;;;6267192;28;20056;-78
2022/09/08 10:38:56;;;;;;;4.68;0.57;;;24.60;74.10;;;;;;6252733;28;20053;-79
2022/09/08 10:42:30;;;;;;;9.10;1.05;;;24.40;73.10;;;;;;6252798;28;20041;-78
2022/09/08 10:46:04;;;;;;;1.73;0.30;;;24.30;73.90;;;;;;6274998;28;20055;-80
2022/09/08 10:49:42;;;;;;;1.45;0.30;;;24.10;75.40;;;;;;6249374;28;20437;-78
2022/09/08 10:52:51;;;;;;;3.00;0.40;;;24.30;76.70;;;;;;6250046;28;20080;-79
2022/09/08 10:56:05;;;;;;;0.95;0.20;;;24.50;74.40;;;;;;6249069;28;20045;-78
2022/09/08 10:59:34;;;;;;;5.22;1.08;;;24.60;75.20;;;;;;6249169;28;20045;-78
2022/09/08 11:02:42;;;;;;;4.00;0.30;;;25.10;73.00;;;;;;6257196;28;20418;-78
2022/09/08 11:05:48;;;;;;;;;;;25.30;71.40;;;;;;6287281;28;20098;-78
2022/09/08 11:09:17;;;;;;;4.40;0.55;;;25.50;71.70;;;;;;6248934;28;19921;-78
2022/09/08 11:12:34;;;;;;;2.20;0.40;;;25.80;69.80;;;;;;6254720;28;20422;-77
2022/09/08 11:16:00;;;;;;;2.45;0.40;;;26.10;69.60;;;;;;6261146;28;20041;-79
2022/09/08 11:19:17;;;;;;;1.30;0.38;;;26.70;67.60;;;;;;6254999;28;20121;-80
2022/09/08 11:22:42;;;;;;;1.42;0.20;;;27.20;65.00;;;;;;6269498;28;20045;-80
2022/09/08 11:26:09;;;;;;;1.02;0.20;;;27.50;64.20;;;;;;6274991;28;20418;-80
2022/09/08 11:29:15;;;;;;;2.72;0.32;;;27.70;62.50;;;;;;6274117;28;20486;-80
2022/09/08 11:32:22;;;;;;;1.83;0.43;;;27.90;63.30;;;;;;6274202;28;20049;-79
2022/09/08 11:35:37;;;;;;;2.67;0.63;;;28.10;61.10;;;;;;6273806;28;20528;-81
2022/09/08 11:39:02;;;;;;;3.22;0.43;;;28.10;61.20;;;;;;6273514;28;20049;-80
2022/09/08 11:42:27;;;;;;;2.88;0.43;;;28.10;60.00;;;;;;6274707;28;20041;-81
2022/09/08 11:45:43;;;;;;;3.22;0.50;;;28.20;59.10;;;;;;6274798;28;20052;-80
2022/09/08 11:49:04;;;;;;;4.25;1.25;;;28.50;59.70;;;;;;6274944;28;20049;-80
2022/09/08 11:52:24;;;;;;;4.85;0.55;;;28.60;57.40;;;;;;6274188;28;20056;-80
2022/09/08 11:55:51;;;;;;;1.88;0.30;;;28.60;57.70;;;;;;6274044;28;20569;-80
2022/09/08 11:59:08;;;;;;;2.70;0.40;;;28.20;57.10;;;;;;6274156;28;20045;-80
2022/09/08 12:02:28;;;;;;;2.30;0.47;;;27.70;57.50;;;;;;6273900;28;20056;-80
2022/09/08 12:05:37;;;;;;;2.55;0.40;;;27.20;58.40;;;;;;6270853;28;20049;-80
2022/09/08 12:09:00;;;;;;;4.72;0.40;;;26.90;60.20;;;;;;6296808;28;20055;-80
2022/09/08 12:12:13;;;;;;;4.18;0.63;;;26.80;62.00;;;;;;6301093;28;20052;-81
2022/09/08 12:15:24;;;;;;;2.20;0.10;;;26.80;61.20;;;;;;6290181;28;20041;-81
2022/09/08 12:18:41;;;;;;;1.75;0.30;;;27.20;60.90;;;;;;6277174;28;20049;-81
2022/09/08 12:22:07;;;;;;;4.75;0.40;;;27.40;59.90;;;;;;6266541;28;20073;-81
2022/09/08 12:25:42;;;;;;;4.80;0.50;;;27.40;58.90;;;;;;6250262;28;20064;-80
2022/09/08 12:29:10;;;;;;;2.03;0.30;;;27.40;58.30;;;;;;6229100;28;20128;-80
2022/09/08 12:32:44;;;;;;;2.75;0.30;;;27.40;58.10;;;;;;6247928;28;20053;-80
2022/09/08 12:35:53;;;;;;;2.35;0.70;;;27.50;58.40;;;;;;6247648;28;20061;-80
2022/09/08 12:39:19;;;;;;;5.07;0.57;;;27.50;60.80;;;;;;6288642;28;20058;-81
2022/09/08 12:42:49;;;;;;;1.38;0.32;;;27.40;62.90;;;;;;6297016;28;20053;-81
2022/09/08 12:46:14;;;;;;;3.50;0.38;;;27.10;64.60;;;;;;6279278;28;20057;-81
2022/09/08 12:49:44;;;;;;;1.83;0.25;;;26.80;65.10;;;;;;6274161;28;20394;-82
2022/09/08 12:53:18;;;;;;;4.82;0.40;;;26.60;65.90;;;;;;6282322;28;20049;-81
2022/09/08 12:56:29;;;;;;;7.00;0.52;;;26.90;67.00;;;;;;6286235;28;20044;-82
2022/09/08 12:59:48;;;;;;;4.10;0.30;;;27.20;64.80;;;;;;6280846;28;20049;-81
2022/09/08 13:03:09;;;;;;;2.35;0.17;;;27.50;64.20;;;;;;6282080;28;20049;-83
2022/09/08 13:06:38;;;;;;;5.32;0.82;;;27.60;63.00;;;;;;6269211;28;20059;-81
2022/09/08 13:09:54;;;;;;;2.60;0.38;;;27.90;62.40;;;;;;6302916;28;20056;-80
2022/09/08 13:13:33;;;;;;;3.60;0.30;;;28.20;62.50;;;;;;6297562;28;20223;-82
2022/09/08 13:16:40;;;;;;;;;;;28.60;61.10;;;;;;6286933;28;20055;-81
2022/09/08 13:20:06;;;;;;;1.08;0.20;;;28.90;61.40;;;;;;6284130;28;19928;-82
2022/09/08 13:23:30;;;;;;;1.90;0.32;;;29.30;60.10;;;;;;6307280;28;20051;-82
2022/09/08 13:26:57;;;;;;;3.15;0.57;;;29.70;58.60;;;;;;6308004;28;20053;-81
2022/09/08 13:30:07;;;;;;;4.55;0.52;;;29.90;56.60;;;;;;6308742;28;20052;-81
2022/09/08 13:33:30;;;;;;;1.40;0.25;;;30.00;56.90;;;;;;6306782;28;20057;-81
2022/09/08 13:36:46;;;;;;;2.65;0.60;;;29.90;56.50;;;;;;6293491;28;20497;-81
2022/09/08 13:39:58;;;;;;;1.30;0.20;;;29.80;56.60;;;;;;6307990;28;20048;-81
2022/09/08 13:43:12;;;;;;;3.83;0.60;;;29.60;56.90;;;;;;6294151;28;20059;-81
2022/09/08 13:46:19;;;;;;;2.90;0.38;;;29.60;56.90;;;;;;6283957;28;20541;-82
2022/09/08 13:49:51;;;;;;;1.67;0.45;;;29.60;56.80;;;;;;6286504;28;20539;-82
2022/09/08 13:53:11;;;;;;;1.55;0.50;;;29.60;57.20;;;;;;6308503;28;20048;-82
2022/09/08 13:56:22;;;;;;;0.75;0.22;;;29.50;56.70;;;;;;6288355;28;20055;-83
2022/09/08 13:59:36;;;;;;;3.80;0.43;;;29.50;56.50;;;;;;6284429;28;20052;-82
2022/09/08 14:02:48;;;;;;;3.08;0.40;;;29.60;57.00;;;;;;6285091;28;20399;-82
2022/09/08 14:05:49;;;;;;;7.30;0.60;;;29.70;56.20;;;;;;6299375;28;20491;-82
2022/09/08 14:08:56;;;;;;;1.38;0.30;;;30.20;55.90;;;;;;6308244;28;20056;-83
2022/09/08 14:12:15;;;;;;;4.50;0.45;;;30.60;54.30;;;;;;6308288;28;20494;-81
2022/09/08 14:15:20;;;;;;;2.53;0.43;;;30.70;51.80;;;;;;6290470;28;20060;-81
2022/09/08 14:18:37;;;;;;;3.97;0.50;;;30.30;52.10;;;;;;6281268;28;20052;-81
2022/09/08 14:21:47;;;;;;;1.23;0.20;;;29.90;51.20;;;;;;6281257;28;20092;-81
2022/09/08 14:24:59;;;;;;;3.50;0.85;;;29.50;51.00;;;;;;6283301;28;20426;-81
2022/09/08 14:28:12;;;;;;;6.75;0.57;;;28.90;48.40;;;;;;6283759;28;20139;-80
2022/09/08 14:31:20;;;;;;;3.20;1.17;;;28.40;49.70;;;;;;6282470;28;20095;-80
2022/09/08 14:34:32;;;;;;;2.92;0.55;;;27.90;49.10;;;;;;6282091;28;20095;-80
2022/09/08 14:37:46;;;;;;;3.47;0.55;;;27.50;50.10;;;;;;6271628;28;20056;-81
2022/09/08 14:40:55;;;;;;;2.42;0.30;;;27.30;51.20;;;;;;6268407;28;20041;-81
2022/09/08 14:44:19;;;;;;;0.13;0.00;;;27.30;50.70;;;;;;6272259;28;20076;-81
2022/09/08 14:47:30;;;;;;;2.60;0.30;;;27.30;50.20;;;;;;6278710;28;20536;-81
2022/09/08 14:51:05;;;;;;;2.80;0.32;;;27.60;51.00;;;;;;6281957;28;20128;-81
2022/09/08 14:54:28;;;;;;;2.38;0.40;;;28.00;48.70;;;;;;6268633;28;20051;-81
2022/09/08 14:57:37;;;;;;;5.30;0.60;;;27.90;47.70;;;;;;6257392;28;20064;-81
2022/09/08 15:00:41;;;;;;;1.30;0.30;;;27.80;48.20;;;;;;6257014;28;20049;-81
2022/09/08 15:03:53;;;;;;;0.50;0.20;;;27.60;49.00;;;;;;6272352;28;20049;-80
2022/09/08 15:06:59;;;;;;;4.05;0.30;;;27.30;49.50;;;;;;6275348;28;20041;-80
2022/09/08 15:10:05;;;;;;;3.83;0.40;;;26.90;49.60;;;;;;6253539;28;20041;-81
2022/09/08 15:13:17;;;;;;;1.25;0.25;;;26.60;50.40;;;;;;6253032;28;20053;-81
2022/09/08 15:16:29;;;;;;;1.55;0.30;;;26.50;50.70;;;;;;6253352;28;20439;-81
2022/09/08 15:19:40;;;;;;;0.77;0.30;;;26.30;51.00;;;;;;6268838;28;20041;-82
2022/09/08 15:22:51;;;;;;;1.33;0.30;;;26.20;52.10;;;;;;6275835;28;20037;-81
2022/09/08 15:26:02;;;;;;;2.53;0.30;;;26.20;52.10;;;;;;6276788;28;20053;-80
2022/09/08 15:29:24;;;;;;;2.40;0.43;;;25.90;52.40;;;;;;6277584;28;20052;-81
2022/09/08 15:32:55;;;;;;;4.05;0.43;;;25.70;52.60;;;;;;6274193;28;20056;-80
2022/09/08 15:36:05;;;;;;;2.17;0.30;;;25.50;53.80;;;;;;6269303;28;20135;-79
2022/09/08 15:39:18;;;;;;;2.38;0.32;;;25.40;54.50;;;;;;6252448;28;20056;-79
2022/09/08 15:42:36;;;;;;;2.25;0.40;;;25.40;54.90;;;;;;6252111;28;20061;-80
2022/09/08 15:46:02;;;;;;;4.90;0.22;;;25.20;55.10;;;;;;6252631;28;20050;-80
2022/09/08 15:49:15;;;;;;;1.42;0.25;;;25.10;55.30;;;;;;6256043;28;20105;-81
2022/09/08 15:52:49;;;;;;;2.13;0.25;;;25.00;56.00;;;;;;6274150;28;20044;-80
2022/09/08 15:56:04;;;;;;;3.53;0.50;;;25.00;57.00;;;;;;6256922;28;20056;-81
2022/09/08 15:59:37;;;;;;;2.70;0.30;;;24.90;58.00;;;;;;6256770;28;20042;-79
2022/09/08 16:02:55;;;;;;;3.90;0.47;;;24.80;58.80;;;;;;6264035;28;20528;-81
2022/09/08 16:05:59;;;;;;;3.13;0.40;;;24.70;59.70;;;;;;6264491;28;20052;-80
2022/09/08 16:09:06;;;;;;;1.83;0.38;;;24.60;60.60;;;;;;6277564;28;20060;-81
2022/09/08 16:12:18;;;;;;;7.53;0.63;;;24.50;61.70;;;;;;6261254;28;20041;-79
2022/09/08 16:15:40;;;;;;;1.58;0.30;;;24.40;61.80;;;;;;6250443;28;20100;-80
2022/09/08 16:18:50;;;;;;;3.63;0.30;;;24.30;62.90;;;;;;6253571;28;20037;-80
2022/09/08 16:22:03;;;;;;;2.90;0.38;;;24.20;64.30;;;;;;6253038;28;20056;-80
2022/09/08 16:25:13;;;;;;;8.98;0.75;;;23.90;65.10;;;;;;6269338;28;20041;-80
2022/09/08 16:28:29;;;;;;;3.47;0.50;;;23.40;65.80;;;;;;6275974;28;20045;-79
2022/09/08 16:31:47;;;;;;;1.45;0.30;;;23.10;68.00;;;;;;6272857;28;20037;-78
2022/09/08 16:35:13;;;;;;;7.38;0.60;;;23.00;69.70;;;;;;6266738;28;20382;-80
2022/09/08 16:38:31;;;;;;;5.30;0.68;;;22.90;70.00;;;;;;6265433;28;20041;-78
2022/09/08 16:41:43;;;;;;;1.85;0.30;;;23.00;71.00;;;;;;6273291;28;20080;-79
2022/09/08 16:44:50;;;;;;;1.35;0.32;;;23.10;69.80;;;;;;6275158;28;20403;-79
2022/09/08 16:47:59;;;;;;;2.33;0.28;;;23.20;69.60;;;;;;6271737;28;20045;-77
2022/09/08 16:51:10;;;;;;;1.85;0.35;;;23.30;69.40;;;;;;6271121;28;20091;-77